sensor_id;sensor_type;location;lat;lon;timestamp;P1;durP1;ratioP1;P2;durP2;ratioP2
11386;SDS011;5748;53.102;8.456;2024-03-23T00:52:39;2.20;;;1.23;;
11386;SDS011;5748;53.102;8.456;2024-03-23T00:55:06;1.67;;;1.30;;
11386;SDS011;5748;53.102;8.456;2024-03-23T00:57:33;2.77;;;1.40;;
11386;SDS011;5748;53.102;8.456;2024-03-23T00:59:59;3.23;;;1.50;;
11386;SDS011;5748;53.102;8.456;2024-03-23T01:02:26;2.43;;;1.60;;
11386;SDS011;5748;53.102;8.456;2024-03-23T01:04:52;2.17;;;1.60;;
11386;SDS011;5748;53.102;8.456;2024-03-23T01:07:19;1.80;;;1.27;;
11386;SDS011;5748;53.102;8.456;2024-03-23T01:09:47;3.17;;;1.60;;
11386;SDS011;5748;53.102;8.456;2024-03-23T01:12:14;2.30;;;1.50;;
11386;SDS011;5748;53.102;8.456;2024-03-23T01:14:40;4.57;;;1.80;;
11386;SDS011;5748;53.102;8.456;2024-03-23T01:17:07;2.37;;;1.50;;
11386;SDS011;5748;53.102;8.456;2024-03-23T01:19:33;4.30;;;1.60;;
11386;SDS011;5748;53.102;8.456;2024-03-23T01:22:00;3.47;;;1.80;;
11386;SDS011;5748;53.102;8.456;2024-03-23T01:24:26;2.50;;;1.40;;
11386;SDS011;5748;53.102;8.456;2024-03-23T01:26:54;2.47;;;1.50;;
11386;SDS011;5748;53.102;8.456;2024-03-23T01:29:20;2.10;;;1.47;;
11386;SDS011;5748;53.102;8.456;2024-03-23T01:31:47;2.83;;;1.73;;
11386;SDS011;5748;53.102;8.456;2024-03-23T01:34:13;3.20;;;1.50;;
11386;SDS011;5748;53.102;8.456;2024-03-23T01:36:40;2.23;;;1.50;;
11386;SDS011;5748;53.102;8.456;2024-03-23T01:39:06;3.67;;;1.70;;
11386;SDS011;5748;53.102;8.456;2024-03-23T01:41:34;2.23;;;1.60;;
11386;SDS011;5748;53.102;8.456;2024-03-23T01:44:04;3.03;;;1.33;;
11386;SDS011;5748;53.102;8.456;2024-03-23T01:46:33;3.60;;;1.53;;
11386;SDS011;5748;53.102;8.456;2024-03-23T01:48:59;2.70;;;1.53;;
11386;SDS011;5748;53.102;8.456;2024-03-23T01:51:27;2.10;;;1.40;;
11386;SDS011;5748;53.102;8.456;2024-03-23T01:53:53;2.00;;;1.40;;
11386;SDS011;5748;53.102;8.456;2024-03-23T01:56:21;2.30;;;1.60;;
11386;SDS011;5748;53.102;8.456;2024-03-23T01:58:47;3.17;;;1.80;;
11386;SDS011;5748;53.102;8.456;2024-03-23T02:01:16;2.33;;;1.60;;
11386;SDS011;5748;53.102;8.456;2024-03-23T02:03:42;3.07;;;1.40;;
11386;SDS011;5748;53.102;8.456;2024-03-23T02:06:09;3.63;;;1.87;;
11386;SDS011;5748;53.102;8.456;2024-03-23T02:08:35;4.73;;;2.00;;
11386;SDS011;5748;53.102;8.456;2024-03-23T02:11:03;2.27;;;1.37;;
11386;SDS011;5748;53.102;8.456;2024-03-23T02:13:29;3.57;;;1.63;;
11386;SDS011;5748;53.102;8.456;2024-03-23T02:15:56;2.67;;;1.50;;
11386;SDS011;5748;53.102;8.456;2024-03-23T02:18:24;3.23;;;1.80;;
11386;SDS011;5748;53.102;8.456;2024-03-23T02:20:51;3.43;;;1.60;;
11386;SDS011;5748;53.102;8.456;2024-03-23T02:23:19;2.77;;;1.80;;
11386;SDS011;5748;53.102;8.456;2024-03-23T02:25:46;2.60;;;1.70;;
11386;SDS011;5748;53.102;8.456;2024-03-23T02:28:12;3.97;;;1.90;;
11386;SDS011;5748;53.102;8.456;2024-03-23T02:30:39;3.20;;;1.67;;
11386;SDS011;5748;53.102;8.456;2024-03-23T02:33:05;3.47;;;1.50;;
11386;SDS011;5748;53.102;8.456;2024-03-23T02:35:32;2.67;;;1.50;;
11386;SDS011;5748;53.102;8.456;2024-03-23T02:37:58;2.50;;;1.73;;
11386;SDS011;5748;53.102;8.456;2024-03-23T02:40:27;2.47;;;1.50;;
11386;SDS011;5748;53.102;8.456;2024-03-23T02:42:53;2.20;;;1.40;;
11386;SDS011;5748;53.102;8.456;2024-03-23T02:45:21;3.53;;;1.73;;
11386;SDS011;5748;53.102;8.456;2024-03-23T02:47:47;2.63;;;1.50;;
11386;SDS011;5748;53.102;8.456;2024-03-23T02:50:17;2.47;;;1.50;;
11386;SDS011;5748;53.102;8.456;2024-03-23T02:52:43;3.07;;;1.53;;
11386;SDS011;5748;53.102;8.456;2024-03-23T02:55:10;2.13;;;1.57;;
11386;SDS011;5748;53.102;8.456;2024-03-23T02:57:38;2.23;;;1.50;;
11386;SDS011;5748;53.102;8.456;2024-03-23T03:00:05;3.13;;;1.50;;
11386;SDS011;5748;53.102;8.456;2024-03-23T03:02:32;2.93;;;1.40;;
11386;SDS011;5748;53.102;8.456;2024-03-23T03:04:59;3.47;;;1.80;;
11386;SDS011;5748;53.102;8.456;2024-03-23T03:07:25;2.47;;;1.63;;
11386;SDS011;5748;53.102;8.456;2024-03-23T03:09:52;2.63;;;1.50;;
11386;SDS011;5748;53.102;8.456;2024-03-23T03:12:18;3.67;;;1.70;;
11386;SDS011;5748;53.102;8.456;2024-03-23T03:14:47;2.73;;;1.50;;
11386;SDS011;5748;53.102;8.456;2024-03-23T03:17:13;3.00;;;1.57;;
11386;SDS011;5748;53.102;8.456;2024-03-23T03:19:40;3.63;;;1.70;;
11386;SDS011;5748;53.102;8.456;2024-03-23T03:22:06;3.07;;;1.73;;
11386;SDS011;5748;53.102;8.456;2024-03-23T03:24:33;2.23;;;1.40;;
11386;SDS011;5748;53.102;8.456;2024-03-23T03:26:59;2.57;;;1.43;;
11386;SDS011;5748;53.102;8.456;2024-03-23T03:29:28;3.23;;;1.60;;
11386;SDS011;5748;53.102;8.456;2024-03-23T03:32:01;2.57;;;1.80;;
11386;SDS011;5748;53.102;8.456;2024-03-23T03:34:29;3.30;;;1.67;;
11386;SDS011;5748;53.102;8.456;2024-03-23T03:36:56;2.43;;;1.70;;
11386;SDS011;5748;53.102;8.456;2024-03-23T03:39:24;2.50;;;1.37;;
11386;SDS011;5748;53.102;8.456;2024-03-23T03:41:50;3.00;;;2.00;;
11386;SDS011;5748;53.102;8.456;2024-03-23T03:44:17;2.57;;;1.33;;
11386;SDS011;5748;53.102;8.456;2024-03-23T03:46:43;2.57;;;1.47;;
11386;SDS011;5748;53.102;8.456;2024-03-23T03:49:12;2.43;;;1.70;;
11386;SDS011;5748;53.102;8.456;2024-03-23T03:51:38;2.07;;;1.47;;
11386;SDS011;5748;53.102;8.456;2024-03-23T03:54:05;3.40;;;1.70;;
11386;SDS011;5748;53.102;8.456;2024-03-23T03:56:31;2.47;;;1.40;;
11386;SDS011;5748;53.102;8.456;2024-03-23T03:58:58;2.93;;;1.80;;
11386;SDS011;5748;53.102;8.456;2024-03-23T04:01:24;2.20;;;1.50;;
11386;SDS011;5748;53.102;8.456;2024-03-23T04:03:51;2.77;;;1.70;;
11386;SDS011;5748;53.102;8.456;2024-03-23T04:06:21;2.23;;;1.40;;
11386;SDS011;5748;53.102;8.456;2024-03-23T04:08:48;3.27;;;1.80;;
11386;SDS011;5748;53.102;8.456;2024-03-23T04:11:14;3.00;;;1.53;;
11386;SDS011;5748;53.102;8.456;2024-03-23T04:13:41;2.77;;;1.57;;
11386;SDS011;5748;53.102;8.456;2024-03-23T04:16:08;2.83;;;1.77;;
11386;SDS011;5748;53.102;8.456;2024-03-23T04:18:35;2.93;;;1.80;;
11386;SDS011;5748;53.102;8.456;2024-03-23T04:21:02;3.00;;;1.40;;
11386;SDS011;5748;53.102;8.456;2024-03-23T04:23:30;4.43;;;1.93;;
11386;SDS011;5748;53.102;8.456;2024-03-23T04:26:02;3.73;;;1.90;;
11386;SDS011;5748;53.102;8.456;2024-03-23T04:28:30;4.50;;;1.70;;
11386;SDS011;5748;53.102;8.456;2024-03-23T04:30:56;2.93;;;1.60;;
11386;SDS011;5748;53.102;8.456;2024-03-23T04:33:23;2.50;;;1.67;;
11386;SDS011;5748;53.102;8.456;2024-03-23T04:35:49;2.57;;;1.70;;
11386;SDS011;5748;53.102;8.456;2024-03-23T04:38:16;3.80;;;1.77;;
11386;SDS011;5748;53.102;8.456;2024-03-23T04:40:44;3.07;;;1.60;;
11386;SDS011;5748;53.102;8.456;2024-03-23T04:43:11;3.63;;;1.87;;
11386;SDS011;5748;53.102;8.456;2024-03-23T04:45:38;2.97;;;1.60;;
11386;SDS011;5748;53.102;8.456;2024-03-23T04:48:04;3.10;;;1.80;;
11386;SDS011;5748;53.102;8.456;2024-03-23T04:50:32;2.63;;;1.77;;
11386;SDS011;5748;53.102;8.456;2024-03-23T04:52:59;3.00;;;1.70;;
11386;SDS011;5748;53.102;8.456;2024-03-23T04:55:26;3.47;;;1.80;;
11386;SDS011;5748;53.102;8.456;2024-03-23T04:57:55;2.33;;;1.63;;
11386;SDS011;5748;53.102;8.456;2024-03-23T05:00:21;3.30;;;1.87;;
11386;SDS011;5748;53.102;8.456;2024-03-23T05:02:48;2.73;;;1.50;;
11386;SDS011;5748;53.102;8.456;2024-03-23T05:05:15;3.70;;;1.40;;
11386;SDS011;5748;53.102;8.456;2024-03-23T05:07:41;3.47;;;1.90;;
11386;SDS011;5748;53.102;8.456;2024-03-23T05:10:09;2.63;;;1.57;;
11386;SDS011;5748;53.102;8.456;2024-03-23T05:12:36;3.30;;;1.60;;
11386;SDS011;5748;53.102;8.456;2024-03-23T05:15:05;2.60;;;1.60;;
11386;SDS011;5748;53.102;8.456;2024-03-23T05:17:32;5.03;;;1.70;;
11386;SDS011;5748;53.102;8.456;2024-03-23T05:20:01;2.73;;;1.60;;
11386;SDS011;5748;53.102;8.456;2024-03-23T05:22:28;3.43;;;1.80;;
11386;SDS011;5748;53.102;8.456;2024-03-23T05:24:55;2.50;;;1.40;;
11386;SDS011;5748;53.102;8.456;2024-03-23T05:27:22;3.33;;;1.83;;
11386;SDS011;5748;53.102;8.456;2024-03-23T05:29:49;2.93;;;1.63;;
11386;SDS011;5748;53.102;8.456;2024-03-23T05:32:16;3.13;;;1.53;;
11386;SDS011;5748;53.102;8.456;2024-03-23T05:34:43;3.23;;;1.57;;
11386;SDS011;5748;53.102;8.456;2024-03-23T05:37:09;2.97;;;1.80;;
11386;SDS011;5748;53.102;8.456;2024-03-23T05:39:36;3.20;;;1.63;;
11386;SDS011;5748;53.102;8.456;2024-03-23T05:42:02;3.93;;;1.90;;
11386;SDS011;5748;53.102;8.456;2024-03-23T05:44:30;1.97;;;1.47;;
11386;SDS011;5748;53.102;8.456;2024-03-23T05:46:56;4.00;;;1.87;;
11386;SDS011;5748;53.102;8.456;2024-03-23T05:49:25;3.63;;;2.10;;
11386;SDS011;5748;53.102;8.456;2024-03-23T05:51:51;3.87;;;1.80;;
11386;SDS011;5748;53.102;8.456;2024-03-23T05:54:18;2.77;;;1.70;;
11386;SDS011;5748;53.102;8.456;2024-03-23T05:56:44;3.90;;;1.60;;
11386;SDS011;5748;53.102;8.456;2024-03-23T05:59:11;2.63;;;1.60;;
11386;SDS011;5748;53.102;8.456;2024-03-23T06:01:37;2.83;;;1.93;;
11386;SDS011;5748;53.102;8.456;2024-03-23T06:04:04;3.47;;;1.77;;
11386;SDS011;5748;53.102;8.456;2024-03-23T06:06:32;3.30;;;2.00;;
11386;SDS011;5748;53.102;8.456;2024-03-23T06:08:59;3.17;;;1.70;;
11386;SDS011;5748;53.102;8.456;2024-03-23T06:11:25;3.13;;;1.80;;
11386;SDS011;5748;53.102;8.456;2024-03-23T06:13:52;2.60;;;1.77;;
11386;SDS011;5748;53.102;8.456;2024-03-23T06:16:18;3.43;;;1.80;;
11386;SDS011;5748;53.102;8.456;2024-03-23T06:18:48;2.53;;;1.90;;
11386;SDS011;5748;53.102;8.456;2024-03-23T06:21:14;2.73;;;1.50;;
11386;SDS011;5748;53.102;8.456;2024-03-23T06:23:43;2.67;;;1.80;;
11386;SDS011;5748;53.102;8.456;2024-03-23T06:26:15;3.27;;;1.80;;
11386;SDS011;5748;53.102;8.456;2024-03-23T06:28:43;2.40;;;1.60;;
11386;SDS011;5748;53.102;8.456;2024-03-23T06:31:09;3.23;;;1.80;;
11386;SDS011;5748;53.102;8.456;2024-03-23T06:33:36;2.90;;;1.70;;
11386;SDS011;5748;53.102;8.456;2024-03-23T06:36:02;3.13;;;1.80;;
11386;SDS011;5748;53.102;8.456;2024-03-23T06:38:31;2.60;;;1.80;;
11386;SDS011;5748;53.102;8.456;2024-03-23T06:40:58;2.87;;;1.80;;
11386;SDS011;5748;53.102;8.456;2024-03-23T06:43:25;3.63;;;1.87;;
11386;SDS011;5748;53.102;8.456;2024-03-23T06:45:55;3.47;;;1.80;;
11386;SDS011;5748;53.102;8.456;2024-03-23T06:48:22;3.60;;;1.83;;
11386;SDS011;5748;53.102;8.456;2024-03-23T06:50:48;3.37;;;1.93;;
11386;SDS011;5748;53.102;8.456;2024-03-23T06:53:16;3.73;;;2.13;;
11386;SDS011;5748;53.102;8.456;2024-03-23T06:55:42;2.57;;;1.90;;
11386;SDS011;5748;53.102;8.456;2024-03-23T06:58:19;3.23;;;2.00;;
11386;SDS011;5748;53.102;8.456;2024-03-23T07:00:46;2.50;;;1.60;;
11386;SDS011;5748;53.102;8.456;2024-03-23T07:03:13;2.57;;;1.60;;
11386;SDS011;5748;53.102;8.456;2024-03-23T07:05:39;2.60;;;1.67;;
11386;SDS011;5748;53.102;8.456;2024-03-23T07:08:07;3.50;;;1.63;;
11386;SDS011;5748;53.102;8.456;2024-03-23T07:10:33;3.63;;;2.00;;
11386;SDS011;5748;53.102;8.456;2024-03-23T07:13:00;2.90;;;1.80;;
11386;SDS011;5748;53.102;8.456;2024-03-23T07:15:28;3.57;;;2.20;;
11386;SDS011;5748;53.102;8.456;2024-03-23T07:17:55;3.40;;;1.73;;
11386;SDS011;5748;53.102;8.456;2024-03-23T07:20:21;3.00;;;1.70;;
11386;SDS011;5748;53.102;8.456;2024-03-23T07:22:48;4.53;;;1.87;;
11386;SDS011;5748;53.102;8.456;2024-03-23T07:25:14;2.17;;;1.60;;
11386;SDS011;5748;53.102;8.456;2024-03-23T07:27:42;4.67;;;2.00;;
11386;SDS011;5748;53.102;8.456;2024-03-23T07:30:08;2.50;;;1.90;;
11386;SDS011;5748;53.102;8.456;2024-03-23T07:32:37;3.30;;;1.70;;
11386;SDS011;5748;53.102;8.456;2024-03-23T07:35:03;3.70;;;1.90;;
11386;SDS011;5748;53.102;8.456;2024-03-23T07:37:31;4.30;;;1.80;;
11386;SDS011;5748;53.102;8.456;2024-03-23T07:39:57;4.03;;;1.90;;
11386;SDS011;5748;53.102;8.456;2024-03-23T07:42:24;2.60;;;1.70;;
11386;SDS011;5748;53.102;8.456;2024-03-23T07:44:51;2.33;;;1.50;;
11386;SDS011;5748;53.102;8.456;2024-03-23T07:47:20;2.60;;;1.57;;
11386;SDS011;5748;53.102;8.456;2024-03-23T07:49:47;3.90;;;1.70;;
11386;SDS011;5748;53.102;8.456;2024-03-23T07:52:14;2.70;;;1.30;;
11386;SDS011;5748;53.102;8.456;2024-03-23T07:54:41;3.20;;;1.70;;
11386;SDS011;5748;53.102;8.456;2024-03-23T07:57:08;2.33;;;1.33;;
11386;SDS011;5748;53.102;8.456;2024-03-23T07:59:34;1.67;;;1.40;;
11386;SDS011;5748;53.102;8.456;2024-03-23T08:02:01;2.27;;;1.47;;
11386;SDS011;5748;53.102;8.456;2024-03-23T08:04:27;2.47;;;1.30;;
11386;SDS011;5748;53.102;8.456;2024-03-23T08:06:55;2.27;;;1.40;;
11386;SDS011;5748;53.102;8.456;2024-03-23T08:09:21;2.53;;;1.30;;
11386;SDS011;5748;53.102;8.456;2024-03-23T08:11:49;2.43;;;1.30;;
11386;SDS011;5748;53.102;8.456;2024-03-23T08:14:15;2.70;;;1.50;;
11386;SDS011;5748;53.102;8.456;2024-03-23T08:16:42;2.17;;;1.20;;
11386;SDS011;5748;53.102;8.456;2024-03-23T08:19:13;2.40;;;1.33;;
11386;SDS011;5748;53.102;8.456;2024-03-23T08:21:40;2.50;;;1.40;;
11386;SDS011;5748;53.102;8.456;2024-03-23T08:24:09;3.60;;;1.30;;
11386;SDS011;5748;53.102;8.456;2024-03-23T08:26:36;2.23;;;1.33;;
11386;SDS011;5748;53.102;8.456;2024-03-23T08:29:02;1.70;;;1.10;;
11386;SDS011;5748;53.102;8.456;2024-03-23T08:31:30;3.03;;;1.13;;
11386;SDS011;5748;53.102;8.456;2024-03-23T08:33:56;2.83;;;1.25;;
11386;SDS011;5748;53.102;8.456;2024-03-23T08:36:23;1.92;;;0.82;;
11386;SDS011;5748;53.102;8.456;2024-03-23T08:38:49;2.08;;;0.90;;
11386;SDS011;5748;53.102;8.456;2024-03-23T08:41:20;2.58;;;1.23;;
11386;SDS011;5748;53.102;8.456;2024-03-23T08:43:46;2.20;;;1.00;;
11386;SDS011;5748;53.102;8.456;2024-03-23T08:46:14;2.53;;;0.82;;
11386;SDS011;5748;53.102;8.456;2024-03-23T08:48:41;1.77;;;0.98;;
11386;SDS011;5748;53.102;8.456;2024-03-23T08:51:10;2.45;;;1.10;;
11386;SDS011;5748;53.102;8.456;2024-03-23T08:53:39;2.03;;;1.10;;
11386;SDS011;5748;53.102;8.456;2024-03-23T08:56:07;2.95;;;1.00;;
11386;SDS011;5748;53.102;8.456;2024-03-23T08:58:36;2.28;;;1.20;;
11386;SDS011;5748;53.102;8.456;2024-03-23T09:01:04;2.30;;;1.10;;
11386;SDS011;5748;53.102;8.456;2024-03-23T09:03:32;1.53;;;1.00;;
11386;SDS011;5748;53.102;8.456;2024-03-23T09:06:00;1.73;;;1.00;;
11386;SDS011;5748;53.102;8.456;2024-03-23T09:08:27;3.53;;;1.23;;
11386;SDS011;5748;53.102;8.456;2024-03-23T09:10:54;1.63;;;1.03;;
11386;SDS011;5748;53.102;8.456;2024-03-23T09:13:20;3.43;;;1.23;;
11386;SDS011;5748;53.102;8.456;2024-03-23T09:15:49;1.70;;;1.10;;
11386;SDS011;5748;53.102;8.456;2024-03-23T09:18:16;1.47;;;1.00;;
11386;SDS011;5748;53.102;8.456;2024-03-23T09:20:44;1.27;;;0.80;;
11386;SDS011;5748;53.102;8.456;2024-03-23T09:23:10;2.10;;;0.90;;
11386;SDS011;5748;53.102;8.456;2024-03-23T09:25:39;1.38;;;0.90;;
11386;SDS011;5748;53.102;8.456;2024-03-23T09:28:08;1.87;;;1.20;;
11386;SDS011;5748;53.102;8.456;2024-03-23T09:30:35;1.50;;;1.10;;
11386;SDS011;5748;53.102;8.456;2024-03-23T09:33:08;2.33;;;1.00;;
11386;SDS011;5748;53.102;8.456;2024-03-23T09:35:36;1.73;;;1.00;;
11386;SDS011;5748;53.102;8.456;2024-03-23T09:38:03;1.47;;;0.80;;
11386;SDS011;5748;53.102;8.456;2024-03-23T09:40:32;1.77;;;0.90;;
11386;SDS011;5748;53.102;8.456;2024-03-23T09:42:58;1.57;;;1.03;;
11386;SDS011;5748;53.102;8.456;2024-03-23T09:45:26;1.17;;;0.80;;
11386;SDS011;5748;53.102;8.456;2024-03-23T09:47:54;1.40;;;1.00;;
11386;SDS011;5748;53.102;8.456;2024-03-23T09:50:23;1.53;;;1.07;;
11386;SDS011;5748;53.102;8.456;2024-03-23T09:52:49;0.80;;;0.80;;
11386;SDS011;5748;53.102;8.456;2024-03-23T09:55:16;2.90;;;1.10;;
11386;SDS011;5748;53.102;8.456;2024-03-23T09:57:43;1.55;;;1.02;;
11386;SDS011;5748;53.102;8.456;2024-03-23T10:00:10;2.53;;;1.30;;
11386;SDS011;5748;53.102;8.456;2024-03-23T10:02:38;0.88;;;0.85;;
11386;SDS011;5748;53.102;8.456;2024-03-23T10:05:06;1.10;;;0.70;;
11386;SDS011;5748;53.102;8.456;2024-03-23T10:07:48;1.52;;;1.00;;
11386;SDS011;5748;53.102;8.456;2024-03-23T10:10:16;1.23;;;0.80;;
11386;SDS011;5748;53.102;8.456;2024-03-23T10:12:43;1.00;;;0.85;;
11386;SDS011;5748;53.102;8.456;2024-03-23T10:15:18;1.40;;;0.85;;
11386;SDS011;5748;53.102;8.456;2024-03-23T10:17:45;1.17;;;0.80;;
11386;SDS011;5748;53.102;8.456;2024-03-23T10:20:12;1.13;;;0.88;;
11386;SDS011;5748;53.102;8.456;2024-03-23T10:22:39;2.05;;;1.05;;
11386;SDS011;5748;53.102;8.456;2024-03-23T10:28:28;1.67;;;0.80;;
11386;SDS011;5748;53.102;8.456;2024-03-23T10:30:54;1.27;;;0.70;;
11386;SDS011;5748;53.102;8.456;2024-03-23T10:33:21;1.60;;;1.00;;
11386;SDS011;5748;53.102;8.456;2024-03-23T10:35:47;1.27;;;0.73;;
11386;SDS011;5748;53.102;8.456;2024-03-23T10:38:15;1.48;;;0.93;;
11386;SDS011;5748;53.102;8.456;2024-03-23T10:40:41;1.30;;;0.73;;
11386;SDS011;5748;53.102;8.456;2024-03-23T10:43:11;1.15;;;0.55;;
11386;SDS011;5748;53.102;8.456;2024-03-23T10:45:39;0.70;;;0.60;;
11386;SDS011;5748;53.102;8.456;2024-03-23T10:48:06;1.63;;;0.88;;
11386;SDS011;5748;53.102;8.456;2024-03-23T10:50:32;1.08;;;0.60;;
11386;SDS011;5748;53.102;8.456;2024-03-23T10:53:00;1.40;;;0.65;;
11386;SDS011;5748;53.102;8.456;2024-03-23T10:55:27;1.35;;;0.80;;
11386;SDS011;5748;53.102;8.456;2024-03-23T10:57:55;1.00;;;0.60;;
11386;SDS011;5748;53.102;8.456;2024-03-23T11:00:24;0.75;;;0.63;;
11386;SDS011;5748;53.102;8.456;2024-03-23T11:02:52;0.93;;;0.70;;
11386;SDS011;5748;53.102;8.456;2024-03-23T11:05:30;1.20;;;0.63;;
11386;SDS011;5748;53.102;8.456;2024-03-23T11:07:57;5.55;;;2.15;;
11386;SDS011;5748;53.102;8.456;2024-03-23T11:10:26;9.52;;;5.57;;
11386;SDS011;5748;53.102;8.456;2024-03-23T11:12:55;26.33;;;15.30;;
11386;SDS011;5748;53.102;8.456;2024-03-23T11:15:21;13.18;;;8.40;;
11386;SDS011;5748;53.102;8.456;2024-03-23T11:18:05;10.15;;;5.18;;
11386;SDS011;5748;53.102;8.456;2024-03-23T11:20:34;4.22;;;3.08;;
11386;SDS011;5748;53.102;8.456;2024-03-23T11:23:01;2.08;;;1.80;;
11386;SDS011;5748;53.102;8.456;2024-03-23T11:25:28;2.67;;;1.48;;
11386;SDS011;5748;53.102;8.456;2024-03-23T11:27:56;2.88;;;1.77;;
11386;SDS011;5748;53.102;8.456;2024-03-23T11:30:23;2.30;;;1.33;;
11386;SDS011;5748;53.102;8.456;2024-03-23T11:32:52;2.40;;;1.48;;
11386;SDS011;5748;53.102;8.456;2024-03-23T11:35:39;2.00;;;1.10;;
11386;SDS011;5748;53.102;8.456;2024-03-23T11:38:07;2.10;;;1.20;;
11386;SDS011;5748;53.102;8.456;2024-03-23T11:40:36;1.83;;;1.08;;
11386;SDS011;5748;53.102;8.456;2024-03-23T11:43:05;1.33;;;1.10;;
11386;SDS011;5748;53.102;8.456;2024-03-23T11:45:35;1.33;;;1.10;;
11386;SDS011;5748;53.102;8.456;2024-03-23T11:48:06;2.20;;;1.15;;
11386;SDS011;5748;53.102;8.456;2024-03-23T11:50:35;1.05;;;0.93;;
11386;SDS011;5748;53.102;8.456;2024-03-23T11:53:09;1.40;;;0.90;;
11386;SDS011;5748;53.102;8.456;2024-03-23T11:55:39;1.25;;;1.02;;
11386;SDS011;5748;53.102;8.456;2024-03-23T11:58:08;1.13;;;0.80;;
11386;SDS011;5748;53.102;8.456;2024-03-23T12:00:35;1.65;;;0.80;;
11386;SDS011;5748;53.102;8.456;2024-03-23T12:03:02;0.80;;;0.60;;
11386;SDS011;5748;53.102;8.456;2024-03-23T12:05:29;1.00;;;0.73;;
11386;SDS011;5748;53.102;8.456;2024-03-23T12:10:44;16.98;;;12.30;;
11386;SDS011;5748;53.102;8.456;2024-03-23T12:13:14;9.00;;;6.53;;
11386;SDS011;5748;53.102;8.456;2024-03-23T12:15:45;4.93;;;3.33;;
11386;SDS011;5748;53.102;8.456;2024-03-23T12:18:14;2.43;;;2.00;;
11386;SDS011;5748;53.102;8.456;2024-03-23T12:20:40;1.80;;;1.40;;
11386;SDS011;5748;53.102;8.456;2024-03-23T12:23:07;3.77;;;2.83;;
11386;SDS011;5748;53.102;8.456;2024-03-23T12:25:38;3.53;;;2.60;;
11386;SDS011;5748;53.102;8.456;2024-03-23T12:28:06;2.55;;;1.70;;
11386;SDS011;5748;53.102;8.456;2024-03-23T12:30:33;1.20;;;1.10;;
11386;SDS011;5748;53.102;8.456;2024-03-23T12:33:01;1.42;;;0.90;;
11386;SDS011;5748;53.102;8.456;2024-03-23T12:35:28;0.93;;;0.68;;
11386;SDS011;5748;53.102;8.456;2024-03-23T12:37:55;1.20;;;0.75;;
11386;SDS011;5748;53.102;8.456;2024-03-23T12:40:22;0.82;;;0.60;;
11386;SDS011;5748;53.102;8.456;2024-03-23T12:42:50;0.50;;;0.50;;
11386;SDS011;5748;53.102;8.456;2024-03-23T12:45:16;1.27;;;0.60;;
11386;SDS011;5748;53.102;8.456;2024-03-23T12:47:43;4.20;;;1.25;;
11386;SDS011;5748;53.102;8.456;2024-03-23T12:50:09;2.53;;;0.55;;
11386;SDS011;5748;53.102;8.456;2024-03-23T12:52:37;0.85;;;0.45;;
11386;SDS011;5748;53.102;8.456;2024-03-23T12:55:03;0.68;;;0.50;;
11386;SDS011;5748;53.102;8.456;2024-03-23T12:57:32;1.30;;;0.65;;
11386;SDS011;5748;53.102;8.456;2024-03-23T12:59:59;1.45;;;0.70;;
11386;SDS011;5748;53.102;8.456;2024-03-23T13:02:26;10.20;;;3.53;;
11386;SDS011;5748;53.102;8.456;2024-03-23T13:04:53;6.55;;;2.95;;
11386;SDS011;5748;53.102;8.456;2024-03-23T13:07:20;26.02;;;9.50;;
11386;SDS011;5748;53.102;8.456;2024-03-23T13:09:49;23.88;;;8.70;;
11386;SDS011;5748;53.102;8.456;2024-03-23T13:12:18;26.08;;;9.30;;
11386;SDS011;5748;53.102;8.456;2024-03-23T13:14:44;19.77;;;7.82;;
11386;SDS011;5748;53.102;8.456;2024-03-23T13:17:13;22.45;;;6.93;;
11386;SDS011;5748;53.102;8.456;2024-03-23T13:19:39;12.98;;;5.05;;
11386;SDS011;5748;53.102;8.456;2024-03-23T13:22:06;46.90;;;12.30;;
11386;SDS011;5748;53.102;8.456;2024-03-23T13:24:33;30.58;;;8.75;;
11386;SDS011;5748;53.102;8.456;2024-03-23T13:27:01;29.13;;;9.13;;
11386;SDS011;5748;53.102;8.456;2024-03-23T13:29:27;21.63;;;7.93;;
11386;SDS011;5748;53.102;8.456;2024-03-23T13:31:54;46.70;;;15.00;;
11386;SDS011;5748;53.102;8.456;2024-03-23T13:34:22;48.00;;;15.90;;
11386;SDS011;5748;53.102;8.456;2024-03-23T13:36:49;27.97;;;12.17;;
11386;SDS011;5748;53.102;8.456;2024-03-23T13:39:15;14.87;;;7.20;;
11386;SDS011;5748;53.102;8.456;2024-03-23T13:41:42;9.27;;;5.60;;
11386;SDS011;5748;53.102;8.456;2024-03-23T13:44:10;14.93;;;9.17;;
11386;SDS011;5748;53.102;8.456;2024-03-23T13:46:38;9.50;;;6.10;;
11386;SDS011;5748;53.102;8.456;2024-03-23T13:49:06;8.57;;;6.47;;
11386;SDS011;5748;53.102;8.456;2024-03-23T13:51:35;4.53;;;3.60;;
11386;SDS011;5748;53.102;8.456;2024-03-23T13:54:01;4.23;;;3.20;;
11386;SDS011;5748;53.102;8.456;2024-03-23T13:56:28;2.97;;;2.50;;
11386;SDS011;5748;53.102;8.456;2024-03-23T13:58:55;1.83;;;1.60;;
11386;SDS011;5748;53.102;8.456;2024-03-23T14:01:23;1.90;;;1.40;;
11386;SDS011;5748;53.102;8.456;2024-03-23T14:03:49;1.37;;;1.20;;
11386;SDS011;5748;53.102;8.456;2024-03-23T14:06:17;1.20;;;0.90;;
11386;SDS011;5748;53.102;8.456;2024-03-23T14:08:44;1.23;;;0.80;;
11386;SDS011;5748;53.102;8.456;2024-03-23T14:11:11;0.73;;;0.70;;
11386;SDS011;5748;53.102;8.456;2024-03-23T14:13:37;0.70;;;0.70;;
11386;SDS011;5748;53.102;8.456;2024-03-23T14:16:05;1.63;;;0.77;;
11386;SDS011;5748;53.102;8.456;2024-03-23T14:18:32;1.10;;;0.80;;
11386;SDS011;5748;53.102;8.456;2024-03-23T14:20:59;1.00;;;0.67;;
11386;SDS011;5748;53.102;8.456;2024-03-23T14:23:26;0.50;;;0.50;;
11386;SDS011;5748;53.102;8.456;2024-03-23T14:25:55;0.40;;;0.40;;
11386;SDS011;5748;53.102;8.456;2024-03-23T14:28:22;0.60;;;0.60;;
11386;SDS011;5748;53.102;8.456;2024-03-23T14:30:49;0.93;;;0.53;;
11386;SDS011;5748;53.102;8.456;2024-03-23T14:33:16;0.80;;;0.80;;
11386;SDS011;5748;53.102;8.456;2024-03-23T14:35:51;0.70;;;0.67;;
11386;SDS011;5748;53.102;8.456;2024-03-23T14:38:18;0.73;;;0.57;;
11386;SDS011;5748;53.102;8.456;2024-03-23T14:40:45;0.93;;;0.70;;
11386;SDS011;5748;53.102;8.456;2024-03-23T14:43:12;0.63;;;0.53;;
11386;SDS011;5748;53.102;8.456;2024-03-23T14:45:45;1.07;;;0.70;;
11386;SDS011;5748;53.102;8.456;2024-03-23T14:48:32;0.60;;;0.50;;
11386;SDS011;5748;53.102;8.456;2024-03-23T14:51:00;0.73;;;0.53;;
11386;SDS011;5748;53.102;8.456;2024-03-23T14:53:26;0.60;;;0.60;;
11386;SDS011;5748;53.102;8.456;2024-03-23T14:55:54;0.57;;;0.50;;
11386;SDS011;5748;53.102;8.456;2024-03-23T14:58:22;1.00;;;0.70;;
11386;SDS011;5748;53.102;8.456;2024-03-23T15:00:49;1.73;;;0.90;;
11386;SDS011;5748;53.102;8.456;2024-03-23T15:03:16;1.97;;;0.87;;
11386;SDS011;5748;53.102;8.456;2024-03-23T15:05:51;0.60;;;0.60;;
11386;SDS011;5748;53.102;8.456;2024-03-23T15:08:18;0.50;;;0.50;;
11386;SDS011;5748;53.102;8.456;2024-03-23T15:10:45;0.87;;;0.70;;
11386;SDS011;5748;53.102;8.456;2024-03-23T15:13:11;0.70;;;0.70;;
11386;SDS011;5748;53.102;8.456;2024-03-23T15:15:41;0.93;;;0.70;;
11386;SDS011;5748;53.102;8.456;2024-03-23T15:18:10;1.00;;;0.87;;
11386;SDS011;5748;53.102;8.456;2024-03-23T15:20:37;1.27;;;0.83;;
11386;SDS011;5748;53.102;8.456;2024-03-23T15:23:04;1.17;;;0.70;;
11386;SDS011;5748;53.102;8.456;2024-03-23T15:25:31;0.90;;;0.60;;
11386;SDS011;5748;53.102;8.456;2024-03-23T15:27:57;0.80;;;0.80;;
11386;SDS011;5748;53.102;8.456;2024-03-23T15:30:25;0.67;;;0.67;;
11386;SDS011;5748;53.102;8.456;2024-03-23T15:32:53;0.97;;;0.80;;
11386;SDS011;5748;53.102;8.456;2024-03-23T15:35:20;1.50;;;0.80;;
11386;SDS011;5748;53.102;8.456;2024-03-23T15:37:48;1.03;;;0.70;;
11386;SDS011;5748;53.102;8.456;2024-03-23T15:40:15;1.20;;;0.80;;
11386;SDS011;5748;53.102;8.456;2024-03-23T15:42:41;1.80;;;0.80;;
11386;SDS011;5748;53.102;8.456;2024-03-23T15:45:08;1.40;;;0.97;;
11386;SDS011;5748;53.102;8.456;2024-03-23T15:47:35;1.00;;;0.90;;
11386;SDS011;5748;53.102;8.456;2024-03-23T15:50:04;1.73;;;0.90;;
11386;SDS011;5748;53.102;8.456;2024-03-23T15:52:33;0.80;;;0.50;;
11386;SDS011;5748;53.102;8.456;2024-03-23T15:55:02;1.30;;;0.80;;
11386;SDS011;5748;53.102;8.456;2024-03-23T15:57:31;1.20;;;0.90;;
11386;SDS011;5748;53.102;8.456;2024-03-23T15:59:59;1.13;;;0.70;;